Time;durP1;ratioP1;P1;durP2;ratioP2;P2;SDS_P1;SDS_P2;PMS_P1;PMS_P2;Temp;Humidity;BMP_temperature;BMP_pressure;BME280_temperature;BME280_humidity;BME280_pressure;Samples;Min_cycle;Max_cycle;Signal;HPM_P1;HPM_P2
2021/12/21 00:01:21;;;;;;;8.83;8.43;;;5.10;79.00;;;;;;5009588;28;20061;-84
2021/12/21 00:03:47;;;;;;;10.80;10.17;;;5.00;79.00;;;;;;5011640;28;20022;-84
2021/12/21 00:06:13;;;;;;;9.00;8.60;;;4.90;79.00;;;;;;5010338;28;20073;-84
2021/12/21 00:08:39;;;;;;;9.80;9.30;;;4.90;79.10;;;;;;5011155;28;20030;-84
2021/12/21 00:11:06;;;;;;;9.00;8.60;;;4.90;79.10;;;;;;5012088;28;20505;-84
2021/12/21 00:23:34;;;;;;;9.50;9.07;;;4.90;79.10;;;;;;4998213;28;20022;-84
2021/12/21 00:26:19;;;;;;;8.97;8.57;;;4.90;79.30;;;;;;5010374;28;20036;-84
2021/12/21 00:31:12;;;;;;;9.47;9.07;;;4.90;79.10;;;;;;5010060;28;20038;-83
2021/12/21 00:33:40;;;;;;;10.37;9.77;;;4.90;79.20;;;;;;5010007;28;20068;-83
2021/12/21 00:36:07;;;;;;;9.43;8.93;;;4.90;79.20;;;;;;5010299;28;20041;-83
2021/12/21 00:38:34;;;;;;;10.27;9.73;;;4.80;79.20;;;;;;4992382;28;20038;-83
2021/12/21 00:41:00;;;;;;;9.20;8.73;;;4.80;79.30;;;;;;4991989;28;20054;-83
2021/12/21 00:43:26;;;;;;;9.27;8.87;;;4.80;79.40;;;;;;4991463;28;20042;-83
2021/12/21 00:45:52;;;;;;;9.80;9.20;;;4.80;79.40;;;;;;4992629;28;20038;-84
2021/12/21 00:48:18;;;;;;;10.53;9.83;;;4.80;79.40;;;;;;5009848;28;20041;-83
2021/12/21 00:50:44;;;;;;;9.20;8.70;;;4.80;79.30;;;;;;5011036;28;20037;-83
2021/12/21 00:53:12;;;;;;;10.40;9.80;;;4.80;79.40;;;;;;5011259;28;20030;-84
2021/12/21 00:55:39;;;;;;;10.07;9.47;;;4.70;79.40;;;;;;5007693;28;20033;-83
2021/12/21 00:58:06;;;;;;;10.33;9.63;;;4.70;79.40;;;;;;5009916;28;20487;-83
2021/12/21 01:00:32;;;;;;;9.17;8.77;;;4.70;79.50;;;;;;5008314;28;20051;-83
2021/12/21 01:03:04;;;;;;;9.53;8.93;;;4.60;79.50;;;;;;4992180;28;20041;-82
2021/12/21 01:05:39;;;;;;;9.70;9.10;;;4.60;79.50;;;;;;5009404;28;20399;-83
2021/12/21 01:08:07;;;;;;;10.43;9.93;;;4.60;79.50;;;;;;5026560;28;20037;-83
2021/12/21 01:15:52;;;;;;;9.70;9.10;;;4.40;79.50;;;;;;5012666;28;20038;-84
2021/12/21 01:18:23;;;;;;;10.93;10.33;;;4.40;80.40;;;;;;5010761;28;20030;-82
2021/12/21 01:21:03;;;;;;;9.03;8.47;;;4.30;79.60;;;;;;4994198;28;20045;-83
2021/12/21 01:26:48;;;;;;;9.13;8.63;;;4.30;79.70;;;;;;5013842;28;20034;-83
2021/12/21 01:29:39;;;;;;;9.80;9.13;;;4.20;79.80;;;;;;5011310;28;20045;-83
2021/12/21 01:34:49;;;;;;;10.83;9.90;;;4.20;79.80;;;;;;5008647;28;20045;-83
2021/12/21 01:37:34;;;;;;;9.67;9.17;;;4.20;79.80;;;;;;5008122;28;20052;-84
2021/12/21 01:40:29;;;;;;;10.20;9.50;;;4.20;79.90;;;;;;5007011;28;20034;-83
2021/12/21 01:50:52;;;;;;;8.63;8.23;;;4.20;79.80;;;;;;5011346;28;20026;-83
2021/12/21 01:53:18;;;;;;;9.33;8.83;;;4.20;79.90;;;;;;4994866;28;20061;-84
2021/12/21 01:55:44;;;;;;;10.20;9.70;;;4.10;79.80;;;;;;5010679;28;20034;-83
2021/12/21 01:58:10;;;;;;;9.27;8.77;;;4.10;79.70;;;;;;5008776;28;20038;-84
2021/12/21 02:00:37;;;;;;;8.80;8.40;;;4.10;79.90;;;;;;5007511;28;20039;-83
2021/12/21 02:03:03;;;;;;;8.90;8.43;;;4.00;79.80;;;;;;5009419;28;20038;-83
2021/12/21 02:05:30;;;;;;;9.60;9.00;;;4.10;80.00;;;;;;4991530;28;20046;-83
2021/12/21 02:07:56;;;;;;;9.63;8.80;;;4.10;80.80;;;;;;5009939;28;20041;-83
2021/12/21 02:10:22;;;;;;;10.80;9.70;;;4.10;80.00;;;;;;5009291;28;20037;-83
2021/12/21 02:12:48;;;;;;;9.23;8.83;;;4.10;79.90;;;;;;5007180;28;20037;-83
2021/12/21 02:15:14;;;;;;;10.33;9.37;;;4.00;79.90;;;;;;5008295;28;20033;-83
2021/12/21 02:23:17;;;;;;;8.93;8.40;;;4.00;80.00;;;;;;5012988;28;20041;-83
2021/12/21 02:30:57;;;;;;;9.50;8.97;;;4.00;80.00;;;;;;5010731;28;20041;-83
2021/12/21 02:33:25;;;;;;;9.77;9.17;;;3.90;80.00;;;;;;5008578;28;20049;-83
2021/12/21 02:35:51;;;;;;;8.37;7.97;;;3.90;80.00;;;;;;5010092;28;20038;-83
2021/12/21 02:38:17;;;;;;;9.57;9.13;;;3.90;80.10;;;;;;5014121;28;20030;-83
2021/12/21 02:40:44;;;;;;;10.10;9.40;;;3.90;80.10;;;;;;5012765;28;20052;-83
2021/12/21 02:43:10;;;;;;;8.80;8.40;;;3.90;80.10;;;;;;5011750;28;20042;-83
2021/12/21 02:45:38;;;;;;;9.63;8.70;;;3.90;80.10;;;;;;5011597;28;20037;-83
2021/12/21 02:48:05;;;;;;;10.43;9.63;;;3.90;80.10;;;;;;5012102;28;20041;-83
2021/12/21 02:50:31;;;;;;;10.03;9.53;;;3.80;80.10;;;;;;5013000;28;20383;-83
2021/12/21 02:52:59;;;;;;;8.87;8.37;;;3.80;80.10;;;;;;5012539;28;20046;-83
2021/12/21 02:55:26;;;;;;;9.13;8.70;;;3.80;80.20;;;;;;5011435;28;20030;-83
2021/12/21 02:57:52;;;;;;;9.33;8.83;;;3.80;80.20;;;;;;4993614;28;20048;-83
2021/12/21 03:00:18;;;;;;;9.93;9.43;;;3.80;80.20;;;;;;5010932;28;20472;-82
2021/12/21 03:02:44;;;;;;;8.73;8.33;;;3.80;80.30;;;;;;5006278;28;20426;-83
2021/12/21 03:05:11;;;;;;;8.80;8.40;;;3.70;80.20;;;;;;5005664;28;20396;-83
2021/12/21 03:10:09;;;;;;;10.67;10.03;;;3.60;80.20;;;;;;5009808;28;20053;-82
2021/12/21 03:15:27;;;;;;;9.40;8.87;;;3.60;80.40;;;;;;5012873;28;20034;-83
2021/12/21 03:17:53;;;;;;;9.93;9.33;;;3.60;80.20;;;;;;5011210;28;20486;-83
2021/12/21 03:20:19;;;;;;;9.60;9.00;;;3.50;80.10;;;;;;5011693;28;20032;-83
2021/12/21 03:22:45;;;;;;;9.70;9.10;;;3.50;80.30;;;;;;5010724;28;20038;-83
2021/12/21 03:25:12;;;;;;;10.10;9.50;;;3.50;80.30;;;;;;5005655;28;20033;-83
2021/12/21 03:27:38;;;;;;;9.87;9.17;;;3.50;80.30;;;;;;5010775;28;20041;-83
2021/12/21 03:30:05;;;;;;;7.77;7.37;;;3.50;80.40;;;;;;4993205;28;20038;-82
2021/12/21 03:32:31;;;;;;;7.93;7.53;;;3.50;80.30;;;;;;4999931;28;20030;-81
2021/12/21 03:34:57;;;;;;;9.50;9.03;;;3.50;80.20;;;;;;5012348;28;20037;-83
2021/12/21 03:37:23;;;;;;;9.53;9.03;;;3.40;80.90;;;;;;4995091;28;20042;-83
2021/12/21 03:39:54;;;;;;;9.33;8.73;;;3.40;80.10;;;;;;5012013;28;20026;-82
2021/12/21 03:42:21;;;;;;;7.90;7.50;;;3.30;80.20;;;;;;4993216;28;20046;-82
2021/12/21 03:44:48;;;;;;;8.50;8.10;;;3.30;80.20;;;;;;5011064;28;20041;-82
2021/12/21 03:47:16;;;;;;;8.70;8.30;;;3.30;80.20;;;;;;5011206;28;20502;-83
2021/12/21 03:52:13;;;;;;;8.13;7.73;;;3.30;80.30;;;;;;5013605;28;20036;-82
2021/12/21 03:54:41;;;;;;;9.13;8.63;;;3.30;80.40;;;;;;4994407;28;20048;-82
2021/12/21 03:57:07;;;;;;;9.17;8.67;;;3.30;80.40;;;;;;5010806;28;20034;-82
2021/12/21 03:59:33;;;;;;;8.60;7.90;;;3.30;80.30;;;;;;5013324;28;20041;-83
2021/12/21 04:02:01;;;;;;;8.63;8.23;;;3.30;80.30;;;;;;5011714;28;20363;-82
2021/12/21 04:04:27;;;;;;;8.50;8.00;;;3.30;80.30;;;;;;5010760;28;20045;-82
2021/12/21 04:06:53;;;;;;;7.20;6.90;;;3.30;80.30;;;;;;5010045;28;20026;-82
2021/12/21 04:09:19;;;;;;;9.03;8.43;;;3.30;80.20;;;;;;5010626;28;20069;-82
2021/12/21 04:11:45;;;;;;;9.63;9.03;;;3.20;80.20;;;;;;5010412;28;20049;-82
2021/12/21 04:14:12;;;;;;;8.53;7.93;;;3.20;80.20;;;;;;4995946;28;20045;-83
2021/12/21 04:16:39;;;;;;;7.70;7.20;;;3.20;80.40;;;;;;5008673;28;20403;-82
2021/12/21 04:19:05;;;;;;;8.03;7.47;;;3.20;80.30;;;;;;5011638;28;20018;-83
2021/12/21 04:21:31;;;;;;;7.87;7.47;;;3.20;80.30;;;;;;5009996;28;20040;-83
2021/12/21 04:23:57;;;;;;;7.77;7.27;;;3.20;80.20;;;;;;4994456;28;20018;-83
2021/12/21 04:26:23;;;;;;;8.83;8.23;;;3.20;80.20;;;;;;5012121;28;20030;-83
2021/12/21 04:28:49;;;;;;;8.17;7.47;;;3.10;80.20;;;;;;5009890;28;20383;-82
2021/12/21 04:31:15;;;;;;;8.40;8.00;;;3.10;80.30;;;;;;5009873;28;20038;-82
2021/12/21 04:33:42;;;;;;;8.90;8.40;;;3.10;80.40;;;;;;5010835;28;20506;-82
2021/12/21 04:36:09;;;;;;;9.13;8.63;;;3.10;80.40;;;;;;5009074;28;20045;-82
2021/12/21 04:38:39;;;;;;;9.47;8.67;;;3.00;80.40;;;;;;5011329;28;20025;-82
2021/12/21 04:41:22;;;;;;;7.40;7.07;;;3.00;80.40;;;;;;5011058;28;20394;-82
2021/12/21 04:43:49;;;;;;;7.73;7.33;;;3.00;80.40;;;;;;5008740;28;20049;-82
2021/12/21 04:46:15;;;;;;;7.83;7.33;;;3.00;80.40;;;;;;5010563;28;20391;-82
2021/12/21 04:48:41;;;;;;;6.47;6.17;;;3.00;80.40;;;;;;5008613;28;20025;-82
2021/12/21 04:51:07;;;;;;;8.33;7.87;;;3.00;80.40;;;;;;5010430;28;20026;-82
2021/12/21 04:53:33;;;;;;;7.70;7.20;;;2.90;80.40;;;;;;4994935;28;20435;-82
2021/12/21 04:56:00;;;;;;;8.97;8.40;;;3.00;80.40;;;;;;5009079;28;20041;-82
2021/12/21 04:58:26;;;;;;;7.70;7.30;;;2.90;80.40;;;;;;5010641;28;20042;-82
2021/12/21 05:00:52;;;;;;;9.00;8.50;;;2.90;80.40;;;;;;5009101;28;20399;-82
2021/12/21 05:03:18;;;;;;;7.40;7.00;;;2.90;80.50;;;;;;5009001;28;20042;-82
2021/12/21 05:05:44;;;;;;;7.70;7.30;;;2.90;80.50;;;;;;5008882;28;20037;-82
2021/12/21 05:08:18;;;;;;;8.43;8.00;;;2.90;79.90;;;;;;4994932;28;20049;-82
2021/12/21 05:10:48;;;;;;;7.83;7.33;;;2.90;80.50;;;;;;5009631;28;20033;-82
2021/12/21 05:13:15;;;;;;;8.13;7.73;;;2.90;80.50;;;;;;5008928;28;20509;-82
2021/12/21 05:15:42;;;;;;;7.77;7.37;;;2.90;80.50;;;;;;5008582;28;20033;-81
2021/12/21 05:18:09;;;;;;;7.17;6.87;;;2.90;80.50;;;;;;4992056;28;20538;-82
2021/12/21 05:20:36;;;;;;;7.90;7.30;;;2.90;80.50;;;;;;5010338;28;20033;-82
2021/12/21 05:23:02;;;;;;;7.90;7.50;;;2.90;80.50;;;;;;4994332;28;20391;-82
2021/12/21 05:25:29;;;;;;;7.70;7.30;;;2.90;80.50;;;;;;5008531;28;20038;-82
2021/12/21 05:27:55;;;;;;;7.60;7.20;;;2.90;80.50;;;;;;5008219;28;20498;-82
2021/12/21 05:30:22;;;;;;;7.77;7.37;;;2.80;80.40;;;;;;5009022;28;20030;-82
2021/12/21 05:32:50;;;;;;;8.17;7.57;;;2.80;80.40;;;;;;5010428;28;20053;-82
2021/12/21 05:35:16;;;;;;;7.47;7.07;;;2.80;80.50;;;;;;5009470;28;20022;-82
2021/12/21 05:37:42;;;;;;;8.70;8.20;;;2.80;80.60;;;;;;5010127;28;20034;-82
2021/12/21 05:40:14;;;;;;;8.83;8.33;;;2.80;80.60;;;;;;5009230;28;20037;-82
2021/12/21 05:42:41;;;;;;;7.60;7.20;;;2.80;80.60;;;;;;5006570;28;20046;-82
2021/12/21 05:45:08;;;;;;;8.27;7.77;;;2.80;80.60;;;;;;5009417;28;20479;-81
2021/12/21 05:47:34;;;;;;;8.03;7.63;;;2.70;80.60;;;;;;5011752;28;20034;-82
2021/12/21 05:50:01;;;;;;;7.40;7.10;;;2.80;80.70;;;;;;5007979;28;20092;-80
2021/12/21 05:52:27;;;;;;;8.80;8.20;;;2.80;80.60;;;;;;4998826;28;20061;-80
2021/12/21 05:54:53;;;;;;;6.67;6.37;;;2.80;80.60;;;;;;4994194;28;20045;-80
2021/12/21 05:57:19;;;;;;;7.67;7.27;;;2.70;80.50;;;;;;4996993;28;20034;-80
2021/12/21 05:59:45;;;;;;;7.53;7.17;;;2.70;80.50;;;;;;5001201;28;20042;-80
2021/12/21 06:02:11;;;;;;;8.67;7.83;;;2.70;80.50;;;;;;5005989;28;20057;-81
2021/12/21 06:04:37;;;;;;;8.67;7.90;;;2.70;81.30;;;;;;5006705;28;20033;-82
2021/12/21 06:07:04;;;;;;;8.20;7.80;;;2.80;81.00;;;;;;5007637;28;20498;-78
2021/12/21 06:09:31;;;;;;;8.13;7.73;;;2.70;80.50;;;;;;5005940;28;20033;-77
2021/12/21 06:12:09;;;;;;;7.43;7.03;;;2.70;80.40;;;;;;5010081;28;20057;-78
2021/12/21 06:27:45;;;;;;;8.33;7.83;;;2.60;80.50;;;;;;5012518;28;20030;-78
2021/12/21 06:30:12;;;;;;;7.63;7.13;;;2.60;80.40;;;;;;5011779;28;20041;-78
2021/12/21 06:32:38;;;;;;;9.30;8.80;;;2.60;80.50;;;;;;5012084;28;20037;-78
2021/12/21 06:35:05;;;;;;;9.83;9.03;;;2.60;80.50;;;;;;5011369;28;20034;-80
2021/12/21 06:37:32;;;;;;;9.73;9.13;;;2.60;80.60;;;;;;5009499;28;20030;-78
2021/12/21 06:39:58;;;;;;;8.40;8.00;;;2.60;80.60;;;;;;5009964;28;20033;-79
2021/12/21 06:42:26;;;;;;;8.77;8.17;;;2.60;80.70;;;;;;5009518;28;20049;-78
2021/12/21 06:44:56;;;;;;;7.53;7.23;;;2.50;80.60;;;;;;5024112;28;20042;-82
2021/12/21 06:52:53;;;;;;;9.10;8.50;;;2.50;80.60;;;;;;4994130;28;20034;-80
2021/12/21 06:55:19;;;;;;;9.33;8.73;;;2.50;80.60;;;;;;5013151;28;20041;-80
2021/12/21 06:57:45;;;;;;;8.93;8.33;;;2.50;80.60;;;;;;5008786;28;20037;-79
2021/12/21 07:00:15;;;;;;;8.13;7.73;;;2.50;81.30;;;;;;5013877;28;20398;-77
2021/12/21 07:02:41;;;;;;;8.18;7.68;;;2.50;80.60;;;;;;5013865;28;20044;-77
2021/12/21 07:05:08;;;;;;;8.13;7.73;;;2.40;80.60;;;;;;5013548;28;20036;-77
2021/12/21 07:07:35;;;;;;;7.70;7.33;;;2.40;80.60;;;;;;5011814;28;20033;-77
2021/12/21 07:10:08;;;;;;;8.70;7.97;;;2.40;80.60;;;;;;5010632;28;20038;-78
2021/12/21 07:20:30;;;;;;;8.90;8.50;;;2.40;80.60;;;;;;4986262;28;20034;-77
2021/12/21 07:22:56;;;;;;;10.10;9.33;;;2.30;80.60;;;;;;5011309;28;20053;-78
2021/12/21 07:25:25;;;;;;;9.23;8.67;;;2.40;80.60;;;;;;4992539;28;20411;-80
2021/12/21 07:27:52;;;;;;;11.77;10.60;;;2.30;80.60;;;;;;5011245;28;20049;-80
2021/12/21 07:30:18;;;;;;;8.20;7.80;;;2.30;80.60;;;;;;5009014;28;20481;-78
2021/12/21 07:32:44;;;;;;;8.00;7.60;;;2.40;80.60;;;;;;5012429;28;20037;-77
2021/12/21 07:35:10;;;;;;;8.57;8.03;;;2.30;80.50;;;;;;5012715;28;20045;-78
2021/12/21 07:37:36;;;;;;;8.83;8.33;;;2.30;80.60;;;;;;5009415;28;20100;-81
2021/12/21 07:40:06;;;;;;;8.73;8.17;;;2.30;80.60;;;;;;5011281;28;20038;-79
2021/12/21 07:42:32;;;;;;;8.20;7.80;;;2.20;80.50;;;;;;5008436;28;20053;-80
2021/12/21 07:44:58;;;;;;;8.30;7.70;;;2.20;80.50;;;;;;5011301;28;20030;-81
2021/12/21 07:47:24;;;;;;;8.33;7.93;;;2.20;80.60;;;;;;5000130;28;20411;-80
2021/12/21 07:49:51;;;;;;;8.47;7.90;;;2.20;80.60;;;;;;5039951;28;20044;-78
2021/12/21 07:52:17;;;;;;;7.67;7.17;;;2.20;80.70;;;;;;5007552;28;20037;-80
2021/12/21 07:54:43;;;;;;;8.83;8.33;;;2.10;80.70;;;;;;5002505;28;20042;-79
2021/12/21 07:57:09;;;;;;;7.90;7.50;;;2.10;80.70;;;;;;5006987;28;20030;-77
2021/12/21 07:59:36;;;;;;;8.47;8.07;;;2.20;80.80;;;;;;4992814;28;20041;-78
2021/12/21 08:02:03;;;;;;;9.57;8.97;;;2.20;80.80;;;;;;5005504;28;20042;-78
2021/12/21 08:04:29;;;;;;;9.27;8.80;;;2.20;80.80;;;;;;5010925;28;20029;-77
2021/12/21 08:06:58;;;;;;;9.13;8.60;;;2.30;80.60;;;;;;5007087;28;20065;-77
2021/12/21 08:09:29;;;;;;;10.57;9.97;;;2.30;80.60;;;;;;5008294;28;20034;-77
2021/12/21 08:14:37;;;;;;;9.50;8.93;;;2.30;80.60;;;;;;5010570;28;20050;-77
2021/12/21 08:17:03;;;;;;;10.57;9.63;;;2.30;80.60;;;;;;4994550;28;20053;-79
2021/12/21 08:19:29;;;;;;;10.60;9.87;;;2.30;80.60;;;;;;4994033;28;20038;-78
2021/12/21 08:21:55;;;;;;;9.20;8.70;;;2.30;80.60;;;;;;4993395;28;20056;-79
2021/12/21 08:24:21;;;;;;;8.47;7.87;;;2.30;80.60;;;;;;5009514;28;20030;-79
2021/12/21 08:26:47;;;;;;;8.50;8.10;;;2.40;80.60;;;;;;5010013;28;20045;-77
2021/12/21 08:29:13;;;;;;;9.47;8.77;;;2.40;80.60;;;;;;5007855;28;20399;-78
2021/12/21 08:31:39;;;;;;;8.07;7.67;;;2.40;80.50;;;;;;4976080;28;20037;-78
2021/12/21 08:34:06;;;;;;;9.07;8.60;;;2.40;80.60;;;;;;5004028;28;20424;-79
2021/12/21 08:36:32;;;;;;;9.73;8.83;;;2.70;81.00;;;;;;5011163;28;20033;-78
2021/12/21 08:38:58;;;;;;;8.60;8.10;;;2.90;80.50;;;;;;5002783;28;20026;-80
2021/12/21 08:41:26;;;;;;;8.60;8.20;;;2.90;80.10;;;;;;5008471;28;20034;-80
2021/12/21 08:43:53;;;;;;;8.53;8.13;;;3.00;80.00;;;;;;4999877;28;20038;-78
2021/12/21 08:46:19;;;;;;;8.70;8.30;;;2.90;80.00;;;;;;5010267;28;20030;-80
2021/12/21 08:48:46;;;;;;;8.80;8.20;;;2.90;80.10;;;;;;5009111;28;20038;-84
2021/12/21 08:51:12;;;;;;;8.57;8.07;;;2.80;80.10;;;;;;4996707;28;20033;-79
2021/12/21 08:53:42;;;;;;;8.00;7.60;;;2.70;80.20;;;;;;5009865;28;20030;-80
2021/12/21 08:56:09;;;;;;;9.10;8.50;;;2.70;80.30;;;;;;5009270;28;20502;-79
2021/12/21 08:58:35;;;;;;;8.33;7.73;;;2.70;80.40;;;;;;5005551;28;20430;-79
2021/12/21 09:01:01;;;;;;;8.23;7.83;;;2.60;80.30;;;;;;4990006;28;20038;-79
2021/12/21 09:03:27;;;;;;;8.27;7.87;;;2.60;80.40;;;;;;5000263;28;20030;-79
2021/12/21 09:05:53;;;;;;;7.60;7.30;;;2.60;80.50;;;;;;5009874;28;20030;-80
2021/12/21 09:08:19;;;;;;;8.93;8.40;;;2.50;80.50;;;;;;5006090;28;20026;-79
2021/12/21 09:10:46;;;;;;;8.43;7.97;;;2.50;80.50;;;;;;4998286;28;20026;-80
2021/12/21 09:13:12;;;;;;;7.40;7.10;;;2.50;80.60;;;;;;4988207;28;20042;-79
2021/12/21 09:15:38;;;;;;;8.10;7.70;;;2.50;80.70;;;;;;4988703;28;20045;-81
2021/12/21 09:18:06;;;;;;;8.83;8.43;;;2.50;80.60;;;;;;5011225;28;20502;-80
2021/12/21 09:20:34;;;;;;;7.63;7.27;;;2.50;80.70;;;;;;5005982;28;20371;-82
2021/12/21 09:23:00;;;;;;;8.37;7.97;;;2.50;80.70;;;;;;4998769;28;20042;-83
2021/12/21 09:25:26;;;;;;;7.67;7.27;;;2.50;80.70;;;;;;5000057;28;20030;-83
2021/12/21 09:27:53;;;;;;;9.40;8.90;;;2.60;81.10;;;;;;4999285;28;20053;-81
2021/12/21 09:30:20;;;;;;;8.63;8.13;;;2.90;81.20;;;;;;4990930;28;20034;-81
2021/12/21 09:32:47;;;;;;;8.77;8.17;;;3.10;80.60;;;;;;5004616;28;20490;-81
2021/12/21 09:35:13;;;;;;;7.67;7.37;;;3.10;80.20;;;;;;4973808;28;20059;-79
2021/12/21 09:37:39;;;;;;;7.33;7.03;;;3.00;80.20;;;;;;5003163;28;20038;-80
2021/12/21 09:40:15;;;;;;;8.30;7.90;;;3.00;80.30;;;;;;5008942;28;20038;-83
2021/12/21 09:42:42;;;;;;;10.33;9.53;;;3.00;80.40;;;;;;5008532;28;20372;-80
2021/12/21 09:45:09;;;;;;;8.93;8.43;;;2.90;80.50;;;;;;4993517;28;20038;-82
2021/12/21 09:47:36;;;;;;;9.27;8.63;;;2.90;80.60;;;;;;5013249;28;20357;-80
2021/12/21 09:50:03;;;;;;;8.17;7.70;;;3.00;80.80;;;;;;4996668;28;20042;-78
2021/12/21 09:52:29;;;;;;;8.40;7.90;;;3.00;80.70;;;;;;5009077;28;20037;-78
2021/12/21 09:54:56;;;;;;;8.90;8.30;;;3.00;80.60;;;;;;5012502;28;20387;-77
2021/12/21 09:57:22;;;;;;;8.60;8.20;;;3.10;81.40;;;;;;4994796;28;20487;-78
2021/12/21 09:59:49;;;;;;;8.03;7.63;;;3.10;80.70;;;;;;5012940;28;20026;-78
2021/12/21 10:02:18;;;;;;;8.00;7.60;;;3.10;80.70;;;;;;4979779;28;20042;-78
2021/12/21 10:04:55;;;;;;;8.97;8.30;;;3.10;80.70;;;;;;5012611;28;20463;-78
2021/12/21 10:07:22;;;;;;;7.40;7.10;;;3.20;80.70;;;;;;5011075;28;20033;-78
2021/12/21 10:09:49;;;;;;;9.00;8.60;;;3.30;80.80;;;;;;5011706;28;20053;-77
2021/12/21 10:12:29;;;;;;;8.67;8.27;;;3.30;80.60;;;;;;4994611;28;20042;-78
2021/12/21 10:15:22;;;;;;;9.83;9.33;;;3.40;80.50;;;;;;5012559;28;20026;-77
2021/12/21 10:17:49;;;;;;;10.77;10.27;;;3.70;80.20;;;;;;5009240;28;20098;-78
2021/12/21 10:20:17;;;;;;;9.80;9.33;;;4.00;79.60;;;;;;5015523;28;20033;-78
2021/12/21 10:22:53;;;;;;;10.00;9.50;;;4.30;78.80;;;;;;5009891;28;20042;-78
2021/12/21 10:25:19;;;;;;;10.17;9.67;;;4.50;78.00;;;;;;5010748;28;20036;-78
2021/12/21 10:27:45;;;;;;;8.97;8.57;;;4.70;77.60;;;;;;5012551;28;20030;-78
2021/12/21 10:30:12;;;;;;;7.80;7.40;;;4.80;77.20;;;;;;5011970;28;20021;-77
2021/12/21 10:32:51;;;;;;;8.57;7.97;;;4.90;77.10;;;;;;5011815;28;20537;-78
2021/12/21 10:35:17;;;;;;;8.73;8.33;;;4.90;77.10;;;;;;5012056;28;20045;-78
2021/12/21 10:37:44;;;;;;;8.13;7.73;;;4.90;77.30;;;;;;5010665;28;20030;-78
2021/12/21 10:40:25;;;;;;;8.97;8.47;;;4.70;77.50;;;;;;4990321;28;20042;-79
2021/12/21 10:43:05;;;;;;;10.15;9.55;;;4.60;77.90;;;;;;4987436;28;20050;-79
2021/12/21 10:45:32;;;;;;;14.60;13.90;;;4.60;78.40;;;;;;5010020;28;20040;-79
2021/12/21 10:47:59;;;;;;;11.27;10.17;;;4.70;78.70;;;;;;4996277;28;20033;-82
2021/12/21 10:50:26;;;;;;;11.57;11.07;;;4.90;78.40;;;;;;4995368;28;20039;-81
2021/12/21 10:52:54;;;;;;;12.37;11.77;;;5.00;77.80;;;;;;4991385;28;20518;-80
2021/12/21 10:55:24;;;;;;;9.67;9.17;;;5.00;77.60;;;;;;4993287;28;20507;-81
2021/12/21 10:58:18;;;;;;;12.30;11.60;;;5.00;77.70;;;;;;4980176;28;20034;-80
2021/12/21 11:00:52;;;;;;;9.07;8.60;;;4.90;77.90;;;;;;5004724;28;20033;-79
2021/12/21 11:03:36;;;;;;;11.07;10.57;;;4.90;78.20;;;;;;5014078;28;20045;-80
2021/12/21 11:06:13;;;;;;;13.93;13.17;;;4.80;78.40;;;;;;4995682;28;20033;-78
2021/12/21 11:08:40;;;;;;;11.40;10.90;;;4.90;78.40;;;;;;5012176;28;20414;-80
2021/12/21 11:11:11;;;;;;;12.10;11.50;;;5.10;78.30;;;;;;5012228;28;20022;-78
2021/12/21 11:13:38;;;;;;;11.23;10.67;;;5.20;77.80;;;;;;5011912;28;20034;-78
2021/12/21 11:16:07;;;;;;;11.53;11.00;;;5.40;77.70;;;;;;5010690;28;20050;-79
2021/12/21 11:18:37;;;;;;;11.07;10.57;;;5.60;77.40;;;;;;4992186;28;20045;-79
2021/12/21 11:21:04;;;;;;;8.40;8.00;;;5.70;76.70;;;;;;5009249;28;20034;-79
2021/12/21 11:23:30;;;;;;;9.67;9.20;;;5.70;76.40;;;;;;4989333;28;20053;-81
2021/12/21 11:25:58;;;;;;;10.53;10.03;;;5.70;76.60;;;;;;4995468;28;20501;-78
2021/12/21 11:28:29;;;;;;;10.80;10.10;;;5.80;76.50;;;;;;5012321;28;20025;-77
2021/12/21 11:30:59;;;;;;;11.90;11.30;;;5.80;76.50;;;;;;5008922;28;20029;-83
2021/12/21 11:33:26;;;;;;;11.90;11.30;;;5.80;76.50;;;;;;4992098;28;20030;-77
2021/12/21 11:38:38;;;;;;;11.00;10.50;;;5.70;76.90;;;;;;5009818;28;20033;-78
2021/12/21 11:41:05;;;;;;;11.90;11.23;;;5.70;77.00;;;;;;5010036;28;20037;-76
2021/12/21 11:43:49;;;;;;;12.00;11.33;;;5.80;77.00;;;;;;5009605;28;20394;-77
2021/12/21 11:46:16;;;;;;;12.13;11.33;;;6.10;76.80;;;;;;5008086;28;20408;-79
2021/12/21 11:48:55;;;;;;;10.93;10.30;;;6.30;76.30;;;;;;5010097;28;20018;-78
2021/12/21 11:51:26;;;;;;;8.93;8.53;;;6.40;75.90;;;;;;5009367;28;20398;-80
2021/12/21 11:53:53;;;;;;;9.45;9.05;;;6.60;75.60;;;;;;5009895;28;20503;-83
2021/12/21 11:56:22;;;;;;;12.00;11.30;;;6.70;75.30;;;;;;4991617;28;20038;-81
2021/12/21 11:58:50;;;;;;;10.87;10.27;;;6.80;75.20;;;;;;5007970;28;20044;-82
2021/12/21 12:01:28;;;;;;;9.67;9.17;;;7.00;74.90;;;;;;4989667;28;20043;-81
2021/12/21 12:04:02;;;;;;;10.43;9.90;;;7.10;74.70;;;;;;5000418;28;20057;-79
2021/12/21 12:06:41;;;;;;;10.50;9.90;;;7.20;74.50;;;;;;5010624;28;20646;-82
2021/12/21 12:09:07;;;;;;;11.97;11.27;;;7.20;74.40;;;;;;5008249;28;20026;-82
2021/12/21 12:11:35;;;;;;;11.93;11.30;;;7.40;74.30;;;;;;4994235;28;20030;-82
2021/12/21 12:14:10;;;;;;;10.50;10.00;;;7.40;74.30;;;;;;4994429;28;20041;-83
2021/12/21 12:16:42;;;;;;;12.57;11.67;;;7.30;74.20;;;;;;5009604;28;20038;-82
2021/12/21 12:19:16;;;;;;;12.13;11.53;;;7.20;74.40;;;;;;5009343;28;20037;-84
2021/12/21 12:21:53;;;;;;;11.37;10.77;;;7.20;74.50;;;;;;5009202;28;20387;-82
2021/12/21 12:24:19;;;;;;;9.87;9.43;;;7.20;74.60;;;;;;4994230;28;20038;-82
2021/12/21 12:27:02;;;;;;;12.83;12.23;;;7.40;74.60;;;;;;5011028;28;20041;-80
2021/12/21 12:29:28;;;;;;;12.93;12.30;;;7.50;73.70;;;;;;4979812;28;20042;-80
2021/12/21 12:32:02;;;;;;;11.70;11.20;;;7.40;73.10;;;;;;4974038;28;20031;-80
2021/12/21 12:34:31;;;;;;;10.60;10.00;;;7.30;72.60;;;;;;5006567;28;20073;-80
2021/12/21 12:36:59;;;;;;;9.77;9.37;;;7.30;72.70;;;;;;4991887;28;20037;-84
2021/12/21 12:39:32;;;;;;;10.83;10.33;;;7.30;72.60;;;;;;5009459;28;20040;-83
2021/12/21 12:42:04;;;;;;;13.10;12.50;;;7.40;72.80;;;;;;4992705;28;20045;-85
2021/12/21 12:44:30;;;;;;;10.20;9.70;;;7.50;72.40;;;;;;5008440;28;20053;-80
2021/12/21 12:47:00;;;;;;;10.70;10.20;;;7.60;72.30;;;;;;5009358;28;20384;-83
2021/12/21 12:49:27;;;;;;;11.93;11.40;;;7.60;72.10;;;;;;5007626;28;20036;-81
2021/12/21 12:52:05;;;;;;;10.40;9.90;;;7.60;71.90;;;;;;5006760;28;20037;-81
2021/12/21 12:54:40;;;;;;;12.10;11.47;;;7.60;72.00;;;;;;5005344;28;20033;-80
2021/12/21 12:57:09;;;;;;;11.90;11.30;;;7.70;71.90;;;;;;4979601;28;20030;-79
2021/12/21 12:59:35;;;;;;;10.20;9.70;;;7.60;71.30;;;;;;5011785;28;20034;-79
2021/12/21 13:02:10;;;;;;;12.03;11.33;;;7.60;71.50;;;;;;5007943;28;20045;-79
2021/12/21 13:04:37;;;;;;;10.77;10.27;;;7.70;71.60;;;;;;5009095;28;20044;-78
2021/12/21 13:07:03;;;;;;;11.77;11.17;;;7.70;71.30;;;;;;5008350;28;20034;-77
2021/12/21 13:09:31;;;;;;;13.33;12.63;;;7.70;71.30;;;;;;5008117;28;20038;-77
2021/12/21 13:11:57;;;;;;;18.23;11.67;;;7.70;71.20;;;;;;4960290;28;20046;-77
2021/12/21 13:14:23;;;;;;;13.17;12.57;;;7.80;71.30;;;;;;5010412;28;20034;-77
2021/12/21 13:16:51;;;;;;;12.60;12.00;;;7.80;71.20;;;;;;5007182;28;20060;-77
2021/12/21 13:19:18;;;;;;;13.27;12.50;;;7.80;70.90;;;;;;4989019;28;20492;-77
2021/12/21 13:21:53;;;;;;;12.97;12.37;;;7.80;70.80;;;;;;5008144;28;20025;-77
2021/12/21 13:24:22;;;;;;;12.90;12.30;;;7.80;70.80;;;;;;4993305;28;20045;-77
2021/12/21 13:26:58;;;;;;;14.03;13.23;;;7.80;70.90;;;;;;5008661;28;20024;-77
2021/12/21 13:29:32;;;;;;;13.70;12.90;;;7.90;71.00;;;;;;5009962;28;20037;-77
2021/12/21 13:32:00;;;;;;;13.53;12.90;;;7.90;70.80;;;;;;4993498;28;20044;-77
2021/12/21 13:34:27;;;;;;;13.27;12.57;;;7.90;70.70;;;;;;5008189;28;20098;-77
2021/12/21 13:36:58;;;;;;;13.73;13.03;;;7.90;70.80;;;;;;5008560;28;20037;-77
2021/12/21 13:39:29;;;;;;;13.27;12.68;;;7.90;70.70;;;;;;4992417;28;20046;-78
2021/12/21 13:42:03;;;;;;;12.73;12.13;;;7.90;70.60;;;;;;4991908;28;20027;-78
2021/12/21 13:44:43;;;;;;;13.40;12.70;;;7.80;70.60;;;;;;5008794;28;20491;-78
2021/12/21 13:47:42;;;;;;;14.10;13.00;;;7.80;70.60;;;;;;4990385;28;20049;-78
2021/12/21 13:50:18;;;;;;;13.40;12.70;;;7.70;70.80;;;;;;4975035;28;20516;-78
2021/12/21 13:52:53;;;;;;;13.00;12.30;;;7.70;71.60;;;;;;4958773;28;20050;-78
2021/12/21 13:55:20;;;;;;;14.03;13.27;;;7.70;70.90;;;;;;4956562;28;20038;-78
2021/12/21 13:57:50;;;;;;;13.70;12.80;;;7.60;70.90;;;;;;4988003;28;20037;-81
2021/12/21 14:00:18;;;;;;;13.93;13.23;;;7.60;71.00;;;;;;4970334;28;20389;-81
2021/12/21 14:02:51;;;;;;;18.37;12.63;;;7.70;71.00;;;;;;4939241;28;20403;-81
2021/12/21 14:05:18;;;;;;;12.57;11.97;;;7.60;71.00;;;;;;4974446;28;20046;-81
2021/12/21 14:07:47;;;;;;;11.10;10.60;;;7.60;71.00;;;;;;4971679;28;20506;-81
2021/12/21 14:10:14;;;;;;;12.40;11.80;;;7.60;70.90;;;;;;4971568;28;20026;-81
2021/12/21 14:12:41;;;;;;;13.77;12.87;;;7.50;70.90;;;;;;4969601;28;20045;-81
2021/12/21 14:15:08;;;;;;;12.80;12.20;;;7.50;71.00;;;;;;4970308;28;20042;-81
2021/12/21 14:17:34;;;;;;;11.90;11.30;;;7.50;71.10;;;;;;4971984;28;20026;-80
2021/12/21 14:20:01;;;;;;;12.70;12.10;;;7.50;71.00;;;;;;4991012;28;20050;-80